sensor_id;sensor_type;location;lat;lon;timestamp;temperature;humidity
47434;SHT31;33184;48.774;8.918;2023-07-31T00:01:32;15.78;70.95
47434;SHT31;33184;48.774;8.918;2023-07-31T00:06:52;15.73;71.12
47434;SHT31;33184;48.774;8.918;2023-07-31T00:12:13;15.64;71.07
47434;SHT31;33184;48.774;8.918;2023-07-31T00:17:34;15.58;71.10
47434;SHT31;33184;48.774;8.918;2023-07-31T00:22:54;15.42;71.90
47434;SHT31;33184;48.774;8.918;2023-07-31T00:28:15;15.35;72.27
47434;SHT31;33184;48.774;8.918;2023-07-31T00:33:35;15.29;72.50
47434;SHT31;33184;48.774;8.918;2023-07-31T00:38:57;15.29;72.65
47434;SHT31;33184;48.774;8.918;2023-07-31T00:44:18;15.29;72.72
47434;SHT31;33184;48.774;8.918;2023-07-31T00:49:38;15.32;72.51
47434;SHT31;33184;48.774;8.918;2023-07-31T00:54:59;15.24;72.76
47434;SHT31;33184;48.774;8.918;2023-07-31T01:00:20;15.12;73.25
47434;SHT31;33184;48.774;8.918;2023-07-31T01:17:00;15.09;73.82
47434;SHT31;33184;48.774;8.918;2023-07-31T01:28:19;14.99;74.24
47434;SHT31;33184;48.774;8.918;2023-07-31T01:33:40;14.91;74.56
47434;SHT31;33184;48.774;8.918;2023-07-31T01:39:01;14.86;74.55
47434;SHT31;33184;48.774;8.918;2023-07-31T01:44:22;14.84;74.74
47434;SHT31;33184;48.774;8.918;2023-07-31T01:49:43;14.75;75.18
47434;SHT31;33184;48.774;8.918;2023-07-31T01:55:04;14.58;75.92
47434;SHT31;33184;48.774;8.918;2023-07-31T02:00:24;14.52;76.42
47434;SHT31;33184;48.774;8.918;2023-07-31T02:05:48;14.35;76.94
47434;SHT31;33184;48.774;8.918;2023-07-31T02:11:09;14.28;77.46
47434;SHT31;33184;48.774;8.918;2023-07-31T02:16:30;14.27;77.36
47434;SHT31;33184;48.774;8.918;2023-07-31T02:21:50;14.31;77.33
47434;SHT31;33184;48.774;8.918;2023-07-31T02:27:11;14.37;76.95
47434;SHT31;33184;48.774;8.918;2023-07-31T02:32:31;14.25;77.42
47434;SHT31;33184;48.774;8.918;2023-07-31T02:37:52;14.11;77.81
47434;SHT31;33184;48.774;8.918;2023-07-31T02:43:13;14.06;78.43
47434;SHT31;33184;48.774;8.918;2023-07-31T02:48:34;13.97;78.38
47434;SHT31;33184;48.774;8.918;2023-07-31T02:53:54;14.00;78.41
47434;SHT31;33184;48.774;8.918;2023-07-31T02:59:15;14.00;78.12
47434;SHT31;33184;48.774;8.918;2023-07-31T03:04:36;14.01;78.09
47434;SHT31;33184;48.774;8.918;2023-07-31T03:09:56;14.01;77.97
47434;SHT31;33184;48.774;8.918;2023-07-31T03:15:17;14.07;77.81
47434;SHT31;33184;48.774;8.918;2023-07-31T03:20:42;14.13;77.49
47434;SHT31;33184;48.774;8.918;2023-07-31T03:26:05;14.16;77.32
47434;SHT31;33184;48.774;8.918;2023-07-31T03:31:26;14.20;77.06
47434;SHT31;33184;48.774;8.918;2023-07-31T03:36:47;14.14;77.10
47434;SHT31;33184;48.774;8.918;2023-07-31T03:42:07;14.07;77.45
47434;SHT31;33184;48.774;8.918;2023-07-31T03:47:29;14.04;77.54
47434;SHT31;33184;48.774;8.918;2023-07-31T03:52:49;14.09;77.38
47434;SHT31;33184;48.774;8.918;2023-07-31T03:58:10;14.13;77.28
47434;SHT31;33184;48.774;8.918;2023-07-31T04:03:30;14.18;77.22
47434;SHT31;33184;48.774;8.918;2023-07-31T04:08:51;14.28;76.87
47434;SHT31;33184;48.774;8.918;2023-07-31T04:14:11;14.35;76.83
47434;SHT31;33184;48.774;8.918;2023-07-31T04:19:32;14.37;76.52
47434;SHT31;33184;48.774;8.918;2023-07-31T04:24:53;14.45;76.26
47434;SHT31;33184;48.774;8.918;2023-07-31T04:30:13;14.47;76.08
47434;SHT31;33184;48.774;8.918;2023-07-31T04:35:34;14.55;76.00
47434;SHT31;33184;48.774;8.918;2023-07-31T04:40:54;14.62;76.07
47434;SHT31;33184;48.774;8.918;2023-07-31T04:46:15;14.67;75.96
47434;SHT31;33184;48.774;8.918;2023-07-31T04:51:36;14.65;76.06
47434;SHT31;33184;48.774;8.918;2023-07-31T04:56:56;14.65;75.91
47434;SHT31;33184;48.774;8.918;2023-07-31T05:02:17;14.68;75.74
47434;SHT31;33184;48.774;8.918;2023-07-31T05:07:37;14.68;75.86
47434;SHT31;33184;48.774;8.918;2023-07-31T05:12:58;14.69;75.95
47434;SHT31;33184;48.774;8.918;2023-07-31T05:18:19;14.74;76.23
47434;SHT31;33184;48.774;8.918;2023-07-31T05:23:39;14.78;75.95
47434;SHT31;33184;48.774;8.918;2023-07-31T05:29:00;14.86;75.84
47434;SHT31;33184;48.774;8.918;2023-07-31T05:34:20;15.00;75.65
47434;SHT31;33184;48.774;8.918;2023-07-31T05:39:41;15.10;75.31
47434;SHT31;33184;48.774;8.918;2023-07-31T05:45:01;15.29;74.89
47434;SHT31;33184;48.774;8.918;2023-07-31T05:50:22;15.49;74.68
47434;SHT31;33184;48.774;8.918;2023-07-31T05:55:43;15.77;74.25
47434;SHT31;33184;48.774;8.918;2023-07-31T06:01:03;15.97;72.65
47434;SHT31;33184;48.774;8.918;2023-07-31T06:06:24;16.10;71.56
47434;SHT31;33184;48.774;8.918;2023-07-31T06:11:44;16.22;71.06
47434;SHT31;33184;48.774;8.918;2023-07-31T06:17:05;16.41;71.06
47434;SHT31;33184;48.774;8.918;2023-07-31T06:22:26;16.60;69.79
47434;SHT31;33184;48.774;8.918;2023-07-31T06:27:46;16.83;69.65
47434;SHT31;33184;48.774;8.918;2023-07-31T06:33:07;17.02;68.87
47434;SHT31;33184;48.774;8.918;2023-07-31T06:38:27;17.31;67.37
47434;SHT31;33184;48.774;8.918;2023-07-31T06:43:48;17.45;65.34
47434;SHT31;33184;48.774;8.918;2023-07-31T06:49:08;17.61;66.79
47434;SHT31;33184;48.774;8.918;2023-07-31T06:54:29;17.55;66.33
47434;SHT31;33184;48.774;8.918;2023-07-31T06:59:50;17.62;65.44
47434;SHT31;33184;48.774;8.918;2023-07-31T07:05:10;17.89;65.16
47434;SHT31;33184;48.774;8.918;2023-07-31T07:10:31;18.17;64.67
47434;SHT31;33184;48.774;8.918;2023-07-31T07:15:51;18.12;63.19
47434;SHT31;33184;48.774;8.918;2023-07-31T07:21:12;18.03;64.47
47434;SHT31;33184;48.774;8.918;2023-07-31T07:26:36;17.92;63.32
47434;SHT31;33184;48.774;8.918;2023-07-31T07:31:56;17.88;64.20
47434;SHT31;33184;48.774;8.918;2023-07-31T07:37:17;18.09;63.85
47434;SHT31;33184;48.774;8.918;2023-07-31T07:42:37;18.30;62.79
47434;SHT31;33184;48.774;8.918;2023-07-31T07:47:58;18.49;63.59
47434;SHT31;33184;48.774;8.918;2023-07-31T07:53:19;18.67;62.72
47434;SHT31;33184;48.774;8.918;2023-07-31T07:58:40;18.88;61.22
47434;SHT31;33184;48.774;8.918;2023-07-31T08:04:00;19.05;61.17
47434;SHT31;33184;48.774;8.918;2023-07-31T08:09:21;18.97;61.04
47434;SHT31;33184;48.774;8.918;2023-07-31T08:14:41;19.28;61.10
47434;SHT31;33184;48.774;8.918;2023-07-31T08:20:02;19.31;60.18
47434;SHT31;33184;48.774;8.918;2023-07-31T08:25:23;19.49;59.83
47434;SHT31;33184;48.774;8.918;2023-07-31T08:30:43;19.43;60.17
47434;SHT31;33184;48.774;8.918;2023-07-31T08:36:04;19.46;59.69
47434;SHT31;33184;48.774;8.918;2023-07-31T08:41:25;19.45;60.07
47434;SHT31;33184;48.774;8.918;2023-07-31T08:46:47;19.58;59.68
47434;SHT31;33184;48.774;8.918;2023-07-31T08:52:08;19.79;58.42
47434;SHT31;33184;48.774;8.918;2023-07-31T08:57:29;19.70;59.28
47434;SHT31;33184;48.774;8.918;2023-07-31T09:02:56;19.63;59.58
47434;SHT31;33184;48.774;8.918;2023-07-31T09:08:20;19.73;59.10
47434;SHT31;33184;48.774;8.918;2023-07-31T09:13:41;19.74;59.70
47434;SHT31;33184;48.774;8.918;2023-07-31T09:19:02;19.36;59.88
47434;SHT31;33184;48.774;8.918;2023-07-31T09:24:31;19.46;60.51
47434;SHT31;33184;48.774;8.918;2023-07-31T09:29:59;19.66;60.15
47434;SHT31;33184;48.774;8.918;2023-07-31T09:35:29;20.11;59.59
47434;SHT31;33184;48.774;8.918;2023-07-31T09:40:49;20.31;56.95
47434;SHT31;33184;48.774;8.918;2023-07-31T09:46:13;20.21;57.22
47434;SHT31;33184;48.774;8.918;2023-07-31T09:51:34;20.71;56.46
47434;SHT31;33184;48.774;8.918;2023-07-31T09:56:59;21.00;54.58
47434;SHT31;33184;48.774;8.918;2023-07-31T10:02:21;21.13;53.36
47434;SHT31;33184;48.774;8.918;2023-07-31T10:07:48;21.07;53.76
47434;SHT31;33184;48.774;8.918;2023-07-31T10:13:12;21.15;53.25
47434;SHT31;33184;48.774;8.918;2023-07-31T10:18:34;21.10;53.98
47434;SHT31;33184;48.774;8.918;2023-07-31T10:23:56;21.66;55.57
47434;SHT31;33184;48.774;8.918;2023-07-31T10:29:17;21.81;52.97
47434;SHT31;33184;48.774;8.918;2023-07-31T10:34:39;21.60;52.39
47434;SHT31;33184;48.774;8.918;2023-07-31T10:45:57;22.49;51.66
47434;SHT31;33184;48.774;8.918;2023-07-31T10:51:20;22.46;50.84
47434;SHT31;33184;48.774;8.918;2023-07-31T10:56:46;22.29;51.35
47434;SHT31;33184;48.774;8.918;2023-07-31T11:02:23;22.05;52.70
47434;SHT31;33184;48.774;8.918;2023-07-31T11:07:49;21.77;52.81
47434;SHT31;33184;48.774;8.918;2023-07-31T11:13:10;21.66;53.52
47434;SHT31;33184;48.774;8.918;2023-07-31T11:18:31;21.68;52.32
47434;SHT31;33184;48.774;8.918;2023-07-31T11:23:53;21.67;51.81
47434;SHT31;33184;48.774;8.918;2023-07-31T11:29:14;21.57;52.38
47434;SHT31;33184;48.774;8.918;2023-07-31T11:34:51;21.67;53.12
47434;SHT31;33184;48.774;8.918;2023-07-31T11:40:11;21.56;52.02
47434;SHT31;33184;48.774;8.918;2023-07-31T11:45:33;21.53;53.02
47434;SHT31;33184;48.774;8.918;2023-07-31T11:50:59;21.80;52.22
47434;SHT31;33184;48.774;8.918;2023-07-31T11:56:21;21.84;51.34
47434;SHT31;33184;48.774;8.918;2023-07-31T12:01:42;21.85;52.83
47434;SHT31;33184;48.774;8.918;2023-07-31T12:07:03;21.91;51.99
47434;SHT31;33184;48.774;8.918;2023-07-31T12:12:26;21.81;51.62
47434;SHT31;33184;48.774;8.918;2023-07-31T12:17:47;21.71;52.08
47434;SHT31;33184;48.774;8.918;2023-07-31T12:23:22;21.67;53.01
47434;SHT31;33184;48.774;8.918;2023-07-31T12:28:49;21.82;53.44
47434;SHT31;33184;48.774;8.918;2023-07-31T12:34:18;21.85;52.84
47434;SHT31;33184;48.774;8.918;2023-07-31T12:39:39;22.05;52.09
47434;SHT31;33184;48.774;8.918;2023-07-31T12:44:59;21.97;51.70
47434;SHT31;33184;48.774;8.918;2023-07-31T12:50:20;22.41;52.17
47434;SHT31;33184;48.774;8.918;2023-07-31T12:55:40;23.09;48.61
47434;SHT31;33184;48.774;8.918;2023-07-31T13:01:01;23.00;49.50
47434;SHT31;33184;48.774;8.918;2023-07-31T13:06:22;23.94;48.57
47434;SHT31;33184;48.774;8.918;2023-07-31T13:11:43;23.75;47.56
47434;SHT31;33184;48.774;8.918;2023-07-31T13:17:03;23.20;49.29
47434;SHT31;33184;48.774;8.918;2023-07-31T13:22:24;23.27;49.67
47434;SHT31;33184;48.774;8.918;2023-07-31T13:27:45;23.64;49.01
47434;SHT31;33184;48.774;8.918;2023-07-31T13:33:06;23.22;49.92
47434;SHT31;33184;48.774;8.918;2023-07-31T13:38:26;23.00;50.77
47434;SHT31;33184;48.774;8.918;2023-07-31T13:43:47;22.76;51.73
47434;SHT31;33184;48.774;8.918;2023-07-31T13:49:07;22.46;52.55
47434;SHT31;33184;48.774;8.918;2023-07-31T13:54:28;22.55;52.85
47434;SHT31;33184;48.774;8.918;2023-07-31T13:59:48;22.36;53.28
47434;SHT31;33184;48.774;8.918;2023-07-31T14:05:09;22.49;52.46
47434;SHT31;33184;48.774;8.918;2023-07-31T14:10:30;22.45;52.79
47434;SHT31;33184;48.774;8.918;2023-07-31T14:15:50;22.48;52.27
47434;SHT31;33184;48.774;8.918;2023-07-31T14:21:12;22.72;51.95
47434;SHT31;33184;48.774;8.918;2023-07-31T14:26:32;22.68;50.75
47434;SHT31;33184;48.774;8.918;2023-07-31T14:31:53;22.99;50.87
47434;SHT31;33184;48.774;8.918;2023-07-31T14:37:13;23.31;49.98
47434;SHT31;33184;48.774;8.918;2023-07-31T14:42:35;23.12;49.39
47434;SHT31;33184;48.774;8.918;2023-07-31T14:47:55;22.93;50.70
47434;SHT31;33184;48.774;8.918;2023-07-31T14:53:16;22.58;50.05
47434;SHT31;33184;48.774;8.918;2023-07-31T14:58:36;22.41;50.96
47434;SHT31;33184;48.774;8.918;2023-07-31T15:03:57;22.26;51.07
47434;SHT31;33184;48.774;8.918;2023-07-31T15:09:18;22.26;51.03
47434;SHT31;33184;48.774;8.918;2023-07-31T15:14:38;22.51;51.09
47434;SHT31;33184;48.774;8.918;2023-07-31T15:19:59;22.61;50.74
47434;SHT31;33184;48.774;8.918;2023-07-31T15:25:20;22.69;50.55
47434;SHT31;33184;48.774;8.918;2023-07-31T15:30:41;22.66;51.30
47434;SHT31;33184;48.774;8.918;2023-07-31T15:36:01;22.71;50.98
47434;SHT31;33184;48.774;8.918;2023-07-31T15:41:22;22.73;52.18
47434;SHT31;33184;48.774;8.918;2023-07-31T15:46:43;23.09;51.89
47434;SHT31;33184;48.774;8.918;2023-07-31T15:52:04;23.03;51.23
47434;SHT31;33184;48.774;8.918;2023-07-31T15:57:24;22.94;50.94
47434;SHT31;33184;48.774;8.918;2023-07-31T16:02:45;22.79;51.99
47434;SHT31;33184;48.774;8.918;2023-07-31T16:08:07;22.79;52.28
47434;SHT31;33184;48.774;8.918;2023-07-31T16:13:28;22.49;52.49
47434;SHT31;33184;48.774;8.918;2023-07-31T16:18:48;22.36;53.76
47434;SHT31;33184;48.774;8.918;2023-07-31T16:24:10;22.24;53.62
47434;SHT31;33184;48.774;8.918;2023-07-31T16:29:30;22.24;53.98
47434;SHT31;33184;48.774;8.918;2023-07-31T16:34:51;22.18;54.31
47434;SHT31;33184;48.774;8.918;2023-07-31T16:40:11;21.94;54.58
47434;SHT31;33184;48.774;8.918;2023-07-31T16:45:32;21.85;55.26
47434;SHT31;33184;48.774;8.918;2023-07-31T16:50:53;21.80;55.72
47434;SHT31;33184;48.774;8.918;2023-07-31T16:56:13;21.68;55.50
47434;SHT31;33184;48.774;8.918;2023-07-31T17:01:34;21.64;55.64
47434;SHT31;33184;48.774;8.918;2023-07-31T17:06:54;21.70;55.93
47434;SHT31;33184;48.774;8.918;2023-07-31T17:12:15;21.66;56.12
47434;SHT31;33184;48.774;8.918;2023-07-31T17:17:35;21.60;56.36
47434;SHT31;33184;48.774;8.918;2023-07-31T17:22:56;21.54;56.58
47434;SHT31;33184;48.774;8.918;2023-07-31T17:28:17;21.63;56.61
47434;SHT31;33184;48.774;8.918;2023-07-31T17:33:37;21.63;56.59
47434;SHT31;33184;48.774;8.918;2023-07-31T17:38:58;21.67;56.71
47434;SHT31;33184;48.774;8.918;2023-07-31T17:44:18;21.68;56.62
47434;SHT31;33184;48.774;8.918;2023-07-31T17:49:39;21.60;57.14
47434;SHT31;33184;48.774;8.918;2023-07-31T17:54:59;21.57;57.64
47434;SHT31;33184;48.774;8.918;2023-07-31T18:00:20;21.45;59.62
47434;SHT31;33184;48.774;8.918;2023-07-31T18:05:42;21.29;60.77
47434;SHT31;33184;48.774;8.918;2023-07-31T18:11:03;21.20;61.26
47434;SHT31;33184;48.774;8.918;2023-07-31T18:16:24;21.09;62.01
47434;SHT31;33184;48.774;8.918;2023-07-31T18:21:45;21.00;62.47
47434;SHT31;33184;48.774;8.918;2023-07-31T18:27:05;20.94;64.05
47434;SHT31;33184;48.774;8.918;2023-07-31T18:32:26;20.76;65.35
47434;SHT31;33184;48.774;8.918;2023-07-31T18:37:47;20.61;66.80
47434;SHT31;33184;48.774;8.918;2023-07-31T18:43:07;20.27;70.32
47434;SHT31;33184;48.774;8.918;2023-07-31T18:48:28;19.93;71.89
47434;SHT31;33184;48.774;8.918;2023-07-31T18:53:50;19.67;72.57
47434;SHT31;33184;48.774;8.918;2023-07-31T18:59:11;19.42;73.39
47434;SHT31;33184;48.774;8.918;2023-07-31T19:04:31;19.31;74.63
47434;SHT31;33184;48.774;8.918;2023-07-31T19:09:53;19.08;75.78
47434;SHT31;33184;48.774;8.918;2023-07-31T19:15:14;18.84;77.21
47434;SHT31;33184;48.774;8.918;2023-07-31T19:20:35;18.70;78.52
47434;SHT31;33184;48.774;8.918;2023-07-31T19:25:56;18.64;78.97
47434;SHT31;33184;48.774;8.918;2023-07-31T19:31:17;18.54;79.69
47434;SHT31;33184;48.774;8.918;2023-07-31T19:36:38;18.36;80.11
47434;SHT31;33184;48.774;8.918;2023-07-31T19:41:59;18.20;81.30
47434;SHT31;33184;48.774;8.918;2023-07-31T19:47:20;18.02;82.05
47434;SHT31;33184;48.774;8.918;2023-07-31T19:52:40;17.83;83.40
47434;SHT31;33184;48.774;8.918;2023-07-31T19:58:01;17.69;84.41
47434;SHT31;33184;48.774;8.918;2023-07-31T20:03:22;17.69;84.61
47434;SHT31;33184;48.774;8.918;2023-07-31T20:08:43;17.81;84.05
47434;SHT31;33184;48.774;8.918;2023-07-31T20:14:06;17.78;84.08
47434;SHT31;33184;48.774;8.918;2023-07-31T20:19:27;17.93;84.39
47434;SHT31;33184;48.774;8.918;2023-07-31T20:24:48;17.72;84.15
47434;SHT31;33184;48.774;8.918;2023-07-31T20:30:08;17.78;84.66
47434;SHT31;33184;48.774;8.918;2023-07-31T20:35:29;17.81;84.48
47434;SHT31;33184;48.774;8.918;2023-07-31T20:40:50;17.69;84.43
47434;SHT31;33184;48.774;8.918;2023-07-31T20:46:12;17.62;84.44
47434;SHT31;33184;48.774;8.918;2023-07-31T20:51:32;17.58;84.58
47434;SHT31;33184;48.774;8.918;2023-07-31T20:56:54;17.54;84.94
47434;SHT31;33184;48.774;8.918;2023-07-31T21:02:17;17.57;84.76
47434;SHT31;33184;48.774;8.918;2023-07-31T21:07:39;17.71;84.95
47434;SHT31;33184;48.774;8.918;2023-07-31T21:13:02;17.71;84.54
47434;SHT31;33184;48.774;8.918;2023-07-31T21:18:24;17.52;84.94
47434;SHT31;33184;48.774;8.918;2023-07-31T21:23:45;17.30;85.99
47434;SHT31;33184;48.774;8.918;2023-07-31T21:29:06;17.23;86.41
47434;SHT31;33184;48.774;8.918;2023-07-31T21:34:27;17.18;86.36
47434;SHT31;33184;48.774;8.918;2023-07-31T21:39:48;17.11;86.78
47434;SHT31;33184;48.774;8.918;2023-07-31T21:45:08;17.14;86.69
47434;SHT31;33184;48.774;8.918;2023-07-31T21:50:29;17.11;86.56
47434;SHT31;33184;48.774;8.918;2023-07-31T21:55:50;17.16;86.17
47434;SHT31;33184;48.774;8.918;2023-07-31T22:01:10;17.13;86.29
47434;SHT31;33184;48.774;8.918;2023-07-31T22:06:31;17.08;86.61
47434;SHT31;33184;48.774;8.918;2023-07-31T22:11:51;17.08;86.69
47434;SHT31;33184;48.774;8.918;2023-07-31T22:17:12;17.16;86.65
47434;SHT31;33184;48.774;8.918;2023-07-31T22:22:33;17.17;85.93
47434;SHT31;33184;48.774;8.918;2023-07-31T22:27:54;17.18;85.80
47434;SHT31;33184;48.774;8.918;2023-07-31T22:33:14;17.23;85.13
47434;SHT31;33184;48.774;8.918;2023-07-31T22:38:35;17.24;84.76
47434;SHT31;33184;48.774;8.918;2023-07-31T22:43:55;17.20;84.84
47434;SHT31;33184;48.774;8.918;2023-07-31T22:49:17;17.13;85.16
47434;SHT31;33184;48.774;8.918;2023-07-31T22:54:38;17.10;85.29
47434;SHT31;33184;48.774;8.918;2023-07-31T22:59:58;17.11;85.20
47434;SHT31;33184;48.774;8.918;2023-07-31T23:05:19;17.13;84.94
47434;SHT31;33184;48.774;8.918;2023-07-31T23:10:39;17.23;84.44
47434;SHT31;33184;48.774;8.918;2023-07-31T23:16:00;17.31;83.94
47434;SHT31;33184;48.774;8.918;2023-07-31T23:21:20;17.37;83.67
47434;SHT31;33184;48.774;8.918;2023-07-31T23:26:41;17.34;83.52
47434;SHT31;33184;48.774;8.918;2023-07-31T23:32:01;17.42;83.41
47434;SHT31;33184;48.774;8.918;2023-07-31T23:37:22;17.38;83.28
47434;SHT31;33184;48.774;8.918;2023-07-31T23:42:43;17.47;83.21
47434;SHT31;33184;48.774;8.918;2023-07-31T23:48:03;17.48;82.64
47434;SHT31;33184;48.774;8.918;2023-07-31T23:53:24;17.48;82.38
47434;SHT31;33184;48.774;8.918;2023-07-31T23:58:45;17.47;82.30
